Terminal Aerodrome Forecast
Issued by NWS Quad Cities IA IL

Home | Current Version | Previous Version | Text Only | Print | Product List | Glossary On
Versions: 1 2 3 4 5 6 7 8 9 10 11 12 13 14 15
171
FTUS43 KDVN 242323
TAFDBQ
TAF
KDBQ 242323Z 2500/2524 20005KT P6SM SCT070
     FM250800 15006KT 5SM BR BKN200
     FM251400 15010KT P6SM BKN050 PROB30 2517/2521 -TSRA BKN050CB
     FM252100 20013G20KT P6SM VCTS BKN050CB=

USA.gov is the U.S. government's official web portal to all federal, state and local government web resources and services.